FAHS/HDS METAR and TAF weather

Enter ICAO airport designator
Station Type Date Time Source
FAHS METAR 2021/09/20 04:00 UTC NOAA

FAHS 200400Z AUTO 28003KT //// // ////// 15/07 Q1017


Station Type Date Time Source
FAHS Decoded METAR 2021/09/20 04:00 UTC NOAA

Hoedspruit, South Africa (FAHS) 24-22S 031-02E 500M
Sep 20, 2021 - 12:00 AM EDT / 2021.09.20 0400 UTC
Wind: from the W (280 degrees) at 3 MPH (3 KT):0
Temperature: 59 F (15 C)
Dew Point: 44 F (7 C)
Relative Humidity: 58%
Pressure (altimeter): 30.03 in. Hg (1017 hPa)
ob: FAHS 200400Z AUTO 28003KT //// // ////// 15/07 Q1017
cycle: 4

Station Type Date Time Source
FAHS TAF 2017/05/23 04:01 UTC NOAA

TAF FAHS 230300Z 2304/2315 VRB02KT CAVOK TX29/2312ZTN12/2304Z

Example: see airport list